Time;durP1;ratioP1;P1;durP2;ratioP2;P2;SDS_P1;SDS_P2;PMS_P1;PMS_P2;Temp;Humidity;BMP_temperature;BMP_pressure;BME280_temperature;BME280_humidity;BME280_pressure;Samples;Min_cycle;Max_cycle;Signal;HPM_P1;HPM_P2
2022/03/01 00:00:45;;;;;;;1.30;1.23;;;;;;;-2.96;73.78;95099.38;2615828;54;20203;-74
2022/03/01 00:03:14;;;;;;;1.70;1.70;;;;;;;-3.29;73.38;95051.41;2615757;47;20165;-75
2022/03/01 00:05:43;;;;;;;1.80;1.70;;;;;;;-4.03;72.23;94946.50;2615844;54;20160;-73
2022/03/01 00:08:12;;;;;;;1.10;1.10;;;;;;;-3.03;73.05;95081.47;2615993;47;20169;-73
2022/03/01 00:10:40;;;;;;;1.47;1.47;;;;;;;-4.66;73.37;94860.63;2615733;54;20240;-73
2022/03/01 00:13:09;;;;;;;0.90;0.90;;;;;;;-2.98;72.96;95111.00;2615791;47;20240;-74
2022/03/01 00:15:41;;;;;;;1.73;1.60;;;;;;;-3.00;72.06;95088.66;2615703;47;20179;-75
2022/03/01 00:18:09;;;;;;;1.70;1.60;;;;;;;-3.12;72.35;95084.78;2615731;47;20184;-75
2022/03/01 00:20:38;;;;;;;2.40;2.20;;;;;;;-3.35;72.76;95054.38;2615687;47;20200;-75
2022/03/01 00:23:07;;;;;;;1.17;1.13;;;;;;;-3.53;72.69;95013.97;2615747;47;20177;-74
2022/03/01 00:25:36;;;;;;;0.77;0.77;;;;;;;-3.47;71.98;95033.16;2615761;54;20156;-76
2022/03/01 00:28:05;;;;;;;0.90;0.90;;;;;;;-3.45;73.17;95039.63;2615673;54;20149;-75
2022/03/01 00:30:34;;;;;;;1.10;1.10;;;;;;;-3.50;73.50;95035.00;2615937;54;20156;-74
2022/03/01 00:33:05;;;;;;;1.13;1.13;;;;;;;-3.22;73.06;95058.97;2615669;54;20263;-74
2022/03/01 00:35:34;;;;;;;1.27;1.27;;;;;;;-3.31;73.02;95065.09;2615937;39;20574;-75
2022/03/01 00:38:03;;;;;;;0.57;0.57;;;;;;;-3.35;72.66;95059.19;2615723;54;20299;-74
2022/03/01 00:40:31;;;;;;;0.87;0.87;;;;;;;-3.30;72.91;95056.22;2614763;54;20149;-74
2022/03/01 00:43:00;;;;;;;2.50;2.40;;;;;;;-3.58;72.59;95035.03;2615702;47;20187;-74
2022/03/01 00:45:29;;;;;;;1.17;1.10;;;;;;;-3.52;72.91;95039.63;2615926;47;20171;-74
2022/03/01 00:47:58;;;;;;;1.13;1.13;;;;;;;-3.45;72.46;95058.28;2614944;46;20202;-74
2022/03/01 00:50:30;;;;;;;0.43;0.43;;;;;;;-3.57;72.92;95035.75;2615287;54;20170;-74
2022/03/01 00:52:59;;;;;;;1.00;1.00;;;;;;;-4.94;73.43;94852.50;2615567;54;20176;-73
2022/03/01 00:55:28;;;;;;;0.87;0.87;;;;;;;-3.75;73.30;95017.50;2616411;39;20558;-73
2022/03/01 00:57:57;;;;;;;0.90;0.90;;;;;;;-3.60;73.31;95032.06;2615632;54;20215;-73
2022/03/01 01:00:25;;;;;;;0.87;0.87;;;;;;;-4.10;74.50;94966.63;2615409;47;20164;-73
2022/03/01 01:02:54;;;;;;;1.07;1.07;;;;;;;-3.63;73.01;95044.25;2615716;47;20170;-73
2022/03/01 01:05:23;;;;;;;1.57;1.57;;;;;;;-3.64;73.48;95030.97;2615535;47;20274;-73
2022/03/01 01:07:55;;;;;;;1.33;1.33;;;;;;;-3.79;73.28;95048.31;2615531;47;20260;-73
2022/03/01 01:10:24;;;;;;;0.70;0.70;;;;;;;-4.07;74.07;95020.81;2615306;54;20172;-73
2022/03/01 01:12:52;;;;;;;0.70;0.70;;;;;;;-4.01;73.95;95026.91;2615628;47;20704;-73
2022/03/01 01:15:23;;;;;;;0.73;0.73;;;;;;;-4.19;74.03;95005.88;2615435;54;20189;-73
2022/03/01 01:17:51;;;;;;;0.50;0.50;;;;;;;-3.98;74.11;95029.31;2615618;47;20191;-73
2022/03/01 01:20:20;;;;;;;1.43;1.33;;;;;;;-4.34;73.27;94973.41;2615629;47;20200;-75
2022/03/01 01:22:49;;;;;;;2.47;2.03;;;;;;;-4.28;73.45;94984.31;2615851;54;20164;-75
2022/03/01 01:25:22;;;;;;;1.70;1.60;;;;;;;-4.53;72.85;94950.91;2615525;54;20173;-75
2022/03/01 01:27:53;;;;;;;0.70;0.70;;;;;;;-3.80;72.75;95030.22;2616103;39;20554;-73
2022/03/01 01:30:24;;;;;;;1.23;1.20;;;;;;;-3.87;72.95;95042.03;2615374;47;20160;-75
2022/03/01 01:32:53;;;;;;;0.93;0.93;;;;;;;-3.86;73.16;95023.41;2615414;47;20198;-74
2022/03/01 01:35:24;;;;;;;0.60;0.60;;;;;;;-4.11;73.42;94968.66;2616029;54;20155;-75
2022/03/01 01:37:54;;;;;;;0.67;0.67;;;;;;;-4.43;73.15;94916.66;2615672;39;20621;-74
2022/03/01 01:40:30;;;;;;;0.97;0.97;;;;;;;-3.54;71.91;94968.19;2615624;54;20148;-73
2022/03/01 01:43:00;;;;;;;0.97;0.97;;;;;;;-3.00;71.00;95019.38;2615276;54;20178;-74
2022/03/01 01:45:30;;;;;;;0.60;0.60;;;;;;;-3.28;72.27;95014.13;2615309;47;20175;-74
2022/03/01 01:48:01;;;;;;;1.57;1.57;;;;;;;-3.08;70.59;95017.94;2615297;47;20182;-74
2022/03/01 01:50:31;;;;;;;0.80;0.80;;;;;;;-3.56;70.30;94956.22;2615332;54;20175;-74
2022/03/01 01:53:00;;;;;;;0.80;0.80;;;;;;;-4.64;70.54;94824.84;2615502;47;20296;-74
2022/03/01 01:55:32;;;;;;;0.80;0.80;;;;;;;-3.65;70.79;95018.41;2615438;47;20164;-73
2022/03/01 01:58:01;;;;;;;1.57;1.50;;;;;;;-3.92;71.85;95012.53;2615317;54;20146;-73
2022/03/01 02:00:30;;;;;;;0.60;0.60;;;;;;;-4.03;72.54;95010.88;2615521;54;20160;-74
2022/03/01 02:02:59;;;;;;;0.60;0.60;;;;;;;-4.16;73.28;95013.06;2615133;54;20168;-73
2022/03/01 02:05:28;;;;;;;0.50;0.50;;;;;;;-4.13;73.31;95011.97;2615392;47;20187;-73
2022/03/01 02:07:57;;;;;;;1.20;1.17;;;;;;;-4.31;73.65;94984.09;2615154;54;20156;-75
2022/03/01 02:10:25;;;;;;;0.93;0.93;;;;;;;-4.05;72.77;94985.03;2615283;54;20319;-74
2022/03/01 02:12:57;;;;;;;0.53;0.53;;;;;;;-3.68;72.51;95003.66;2615696;39;20676;-73
2022/03/01 02:15:28;;;;;;;0.60;0.60;;;;;;;-3.96;72.12;95001.06;2615702;39;20592;-75
2022/03/01 02:17:57;;;;;;;0.80;0.80;;;;;;;-4.21;72.95;94955.91;2615389;47;20175;-73
2022/03/01 02:20:29;;;;;;;0.50;0.50;;;;;;;-3.89;72.45;94989.28;2615400;47;20185;-74
2022/03/01 02:25:40;;;;;;;0.63;0.63;;;;;;;-4.28;73.13;94946.31;2615568;47;20168;-74
2022/03/01 02:28:09;;;;;;;0.70;0.70;;;;;;;-4.22;73.07;94974.53;2615193;54;20160;-74
2022/03/01 02:30:38;;;;;;;0.50;0.50;;;;;;;-4.13;72.94;94964.94;2615573;54;20155;-74
2022/03/01 02:33:07;;;;;;;1.30;0.70;;;;;;;-4.18;73.36;94979.69;2615461;54;20160;-74
2022/03/01 02:35:39;;;;;;;0.80;0.80;;;;;;;-4.35;72.65;94941.50;2615590;54;20218;-74
2022/03/01 02:38:08;;;;;;;0.80;0.80;;;;;;;-4.42;72.33;94945.75;2614936;54;20154;-74
2022/03/01 02:40:36;;;;;;;0.63;0.63;;;;;;;-3.70;74.51;94958.47;2615589;47;20227;-74
2022/03/01 02:43:07;;;;;;;1.20;1.20;;;;;;;-4.57;72.25;94818.59;2615321;54;20243;-74
2022/03/01 02:45:35;;;;;;;0.80;0.80;;;;;;;-3.97;69.48;94950.56;2614924;54;20173;-74
2022/03/01 02:48:04;;;;;;;0.67;0.67;;;;;;;-3.90;70.79;94976.75;2615343;47;20323;-75
2022/03/01 02:50:33;;;;;;;0.93;0.93;;;;;;;-3.33;71.10;94984.59;2615454;52;20160;-74
2022/03/01 02:53:05;;;;;;;0.67;0.67;;;;;;;-4.26;67.84;94846.22;2615346;47;20793;-73
2022/03/01 02:55:33;;;;;;;0.60;0.60;;;;;;;-3.74;68.87;94930.41;2615053;54;20164;-74
2022/03/01 02:58:02;;;;;;;0.60;0.60;;;;;;;-4.38;69.47;94879.06;2615248;54;20163;-74
2022/03/01 03:00:31;;;;;;;0.90;0.90;;;;;;;-3.79;68.82;94940.38;2615274;54;20160;-73
2022/03/01 03:03:00;;;;;;;0.70;0.70;;;;;;;-3.96;69.32;94938.19;2615618;54;20148;-74
2022/03/01 03:05:28;;;;;;;1.17;1.17;;;;;;;-3.70;68.50;94986.88;2615200;47;20168;-74
2022/03/01 03:07:57;;;;;;;0.70;0.70;;;;;;;-3.62;68.87;94984.09;2613505;54;20234;-73
2022/03/01 03:10:29;;;;;;;0.70;0.70;;;;;;;-3.35;68.60;94976.09;2615631;39;20670;-73
2022/03/01 03:12:58;;;;;;;0.80;0.80;;;;;;;-3.51;68.17;94966.34;2615306;54;20187;-74
2022/03/01 03:15:27;;;;;;;1.37;1.37;;;;;;;-3.69;68.57;94959.94;2616215;54;20157;-73
2022/03/01 03:17:56;;;;;;;0.80;0.80;;;;;;;-3.55;68.86;94985.38;2615800;46;20185;-73
2022/03/01 03:20:26;;;;;;;0.47;0.47;;;;;;;-3.48;69.36;94984.63;2616751;39;20550;-74
2022/03/01 03:22:55;;;;;;;0.60;0.60;;;;;;;-3.33;68.83;94976.28;2616052;54;20188;-74
2022/03/01 03:25:24;;;;;;;0.60;0.60;;;;;;;-3.53;69.04;94980.75;2616046;54;20179;-73
2022/03/01 03:27:55;;;;;;;1.40;1.40;;;;;;;-3.58;69.28;94976.88;2615849;54;20165;-73
2022/03/01 03:30:24;;;;;;;1.00;1.00;;;;;;;-3.63;69.81;94986.13;2616059;54;20991;-73
2022/03/01 03:32:53;;;;;;;0.60;0.60;;;;;;;-3.53;69.07;94986.28;2615987;47;20247;-73
2022/03/01 03:35:21;;;;;;;1.13;1.13;;;;;;;-4.15;68.68;94896.34;2616012;47;20176;-73
2022/03/01 03:37:50;;;;;;;1.10;1.10;;;;;;;-3.76;69.52;94968.97;2616154;54;20171;-73
2022/03/01 03:40:19;;;;;;;0.93;0.93;;;;;;;-3.75;69.79;94967.69;2615763;47;20334;-73
2022/03/01 03:42:48;;;;;;;0.80;0.80;;;;;;;-3.72;70.65;94983.94;2615856;47;20173;-73
2022/03/01 03:45:20;;;;;;;0.60;0.60;;;;;;;-3.84;71.11;94990.41;2615607;54;20199;-73
2022/03/01 03:47:48;;;;;;;1.17;1.17;;;;;;;-4.10;71.27;94955.56;2616047;47;20253;-73
2022/03/01 03:50:17;;;;;;;0.93;0.67;;;;;;;-3.80;71.38;94980.41;2615970;54;20248;-73
2022/03/01 03:52:46;;;;;;;2.63;1.67;;;;;;;-4.01;71.20;94975.09;2616561;31;20735;-73
2022/03/01 03:55:15;;;;;;;0.90;0.90;;;;;;;-4.32;71.62;94919.03;2616288;39;20540;-73
2022/03/01 03:57:44;;;;;;;1.10;1.03;;;;;;;-3.93;70.98;94980.59;2615910;54;20161;-74
2022/03/01 04:00:17;;;;;;;0.60;0.60;;;;;;;-4.10;71.69;94952.78;2615989;54;20163;-73
2022/03/01 04:02:51;;;;;;;0.70;0.70;;;;;;;-3.99;71.64;94960.72;2616235;39;20572;-73
2022/03/01 04:05:20;;;;;;;0.50;0.50;;;;;;;-4.18;72.28;94949.28;2615952;54;20148;-73
2022/03/01 04:07:50;;;;;;;1.13;1.13;;;;;;;-3.98;72.05;94981.56;2615539;47;20283;-74
2022/03/01 04:10:20;;;;;;;1.23;1.23;;;;;;;-3.97;72.00;94983.75;2616055;47;20742;-74
2022/03/01 04:12:49;;;;;;;0.97;0.93;;;;;;;-3.92;72.38;94984.84;2615631;47;20156;-74
2022/03/01 04:15:18;;;;;;;0.60;0.60;;;;;;;-3.89;72.67;94983.00;2615633;47;20167;-74
2022/03/01 04:17:49;;;;;;;0.80;0.80;;;;;;;-3.98;72.08;94987.81;2615762;47;20184;-74
2022/03/01 04:20:21;;;;;;;0.57;0.57;;;;;;;-3.97;72.13;94977.50;2615724;47;20227;-74
2022/03/01 04:22:50;;;;;;;1.40;1.30;;;;;;;-4.09;72.64;94971.56;2615859;47;20168;-74
2022/03/01 04:25:19;;;;;;;1.43;1.43;;;;;;;-4.32;72.24;94957.00;2615780;47;20197;-73
2022/03/01 04:27:48;;;;;;;0.57;0.57;;;;;;;-4.27;72.77;94974.72;2615604;54;20171;-72
2022/03/01 04:30:16;;;;;;;1.33;1.33;;;;;;;-4.21;72.30;94987.06;2615813;54;20171;-75
2022/03/01 04:32:46;;;;;;;0.97;0.97;;;;;;;-4.22;72.42;94980.06;2616021;54;20165;-74
2022/03/01 04:35:17;;;;;;;0.87;0.87;;;;;;;-4.96;72.56;94871.66;2615888;54;20176;-74
2022/03/01 04:37:46;;;;;;;0.70;0.70;;;;;;;-4.25;72.20;94963.84;2615965;47;20201;-74
2022/03/01 04:40:18;;;;;;;0.67;0.67;;;;;;;-4.12;72.18;94988.56;2615775;47;20263;-74
2022/03/01 04:42:46;;;;;;;0.63;0.63;;;;;;;-4.35;72.45;94955.34;2615957;47;20184;-74
2022/03/01 04:45:16;;;;;;;2.08;1.98;;;;;;;-4.38;72.33;94965.50;2616073;39;20774;-74
2022/03/01 04:47:45;;;;;;;2.03;2.03;;;;;;;-4.52;72.17;94936.56;2615803;54;20151;-73
2022/03/01 04:50:17;;;;;;;1.00;1.00;;;;;;;-4.25;72.99;94992.25;2615524;47;20776;-73
2022/03/01 04:52:47;;;;;;;1.20;1.20;;;;;;;-4.27;72.85;94989.28;2615860;47;20168;-73
2022/03/01 04:55:17;;;;;;;0.97;0.97;;;;;;;-4.25;72.65;95003.31;2615523;46;20178;-74
2022/03/01 04:57:46;;;;;;;0.70;0.70;;;;;;;-4.24;73.08;94990.22;2615869;54;20151;-74
2022/03/01 05:00:16;;;;;;;0.97;0.97;;;;;;;-4.32;72.66;94943.91;2615473;54;20211;-74
2022/03/01 05:02:47;;;;;;;0.70;0.70;;;;;;;-4.21;72.38;94933.78;2615479;54;20237;-73
2022/03/01 05:05:19;;;;;;;1.33;1.27;;;;;;;-3.31;70.49;94929.38;2615594;54;20159;-75
2022/03/01 05:07:49;;;;;;;1.43;1.43;;;;;;;-3.10;68.14;94910.44;2615609;54;20169;-74
2022/03/01 05:10:20;;;;;;;0.67;0.67;;;;;;;-1.96;66.67;95006.06;2615576;47;20711;-75
2022/03/01 05:12:51;;;;;;;0.70;0.70;;;;;;;-2.44;66.78;94975.66;2615232;47;20267;-74
2022/03/01 05:15:20;;;;;;;1.70;1.43;;;;;;;-2.67;67.82;94939.03;2615918;39;20216;-73
2022/03/01 05:17:50;;;;;;;1.60;1.50;;;;;;;-3.37;68.31;94923.28;2615505;54;20667;-73
2022/03/01 05:20:22;;;;;;;2.10;1.98;;;;;;;-3.06;69.07;94948.84;2615239;54;20400;-73
2022/03/01 05:22:51;;;;;;;0.60;0.60;;;;;;;-2.76;68.25;95004.16;2615595;54;20172;-73
2022/03/01 05:25:22;;;;;;;0.57;0.57;;;;;;;-3.04;68.96;94985.78;2616166;39;20685;-74
2022/03/01 05:27:53;;;;;;;2.37;2.27;;;;;;;-3.75;70.73;94998.88;2615150;47;20172;-74
2022/03/01 05:30:23;;;;;;;1.20;1.20;;;;;;;-4.19;73.05;95006.59;2615287;47;20172;-72
2022/03/01 05:32:53;;;;;;;0.60;0.60;;;;;;;-5.04;74.14;94891.69;2615654;54;20275;-72
2022/03/01 05:35:26;;;;;;;0.70;0.70;;;;;;;-4.14;74.67;95013.25;2615503;47;20171;-74
2022/03/01 05:37:57;;;;;;;0.97;0.97;;;;;;;-4.60;73.96;94951.63;2615712;47;20264;-74
2022/03/01 05:40:28;;;;;;;1.07;1.07;;;;;;;-4.84;74.62;94939.06;2615570;54;20180;-73
2022/03/01 05:42:57;;;;;;;1.13;1.13;;;;;;;-4.48;75.44;94974.88;2615758;47;20287;-72
2022/03/01 05:45:32;;;;;;;1.10;1.10;;;;;;;-3.75;72.82;95009.94;2615491;54;20400;-73
2022/03/01 05:48:01;;;;;;;0.83;0.83;;;;;;;-4.22;72.45;94968.25;2616686;39;20668;-73
2022/03/01 05:50:32;;;;;;;2.00;1.53;;;;;;;-3.89;73.96;95022.50;2616010;54;20191;-73
2022/03/01 05:53:01;;;;;;;1.23;1.23;;;;;;;-3.97;72.84;94988.56;2616154;47;20160;-73
2022/03/01 05:55:30;;;;;;;1.60;1.60;;;;;;;-3.60;72.90;95025.78;2615439;54;20801;-73
2022/03/01 05:57:59;;;;;;;1.57;1.57;;;;;;;-3.83;70.75;94981.53;2616150;54;20180;-72
2022/03/01 06:00:28;;;;;;;0.93;0.93;;;;;;;-3.73;72.15;94996.28;2616090;54;20152;-72
2022/03/01 06:02:57;;;;;;;0.70;0.70;;;;;;;-3.63;71.63;95005.50;2615342;54;20291;-73
2022/03/01 06:05:28;;;;;;;1.67;1.57;;;;;;;-4.37;72.04;94931.00;2615701;54;20211;-72
2022/03/01 06:08:00;;;;;;;1.17;1.17;;;;;;;-3.81;73.17;95039.81;2615585;39;20554;-70
2022/03/01 06:10:29;;;;;;;1.70;1.67;;;;;;;-3.66;72.81;94940.16;2615546;47;20168;-72
2022/03/01 06:12:58;;;;;;;0.73;0.73;;;;;;;-3.81;71.22;94889.63;2615945;54;20160;-73
2022/03/01 06:15:27;;;;;;;1.70;1.70;;;;;;;-2.75;70.21;95021.50;2616136;47;20264;-72
2022/03/01 06:17:56;;;;;;;2.33;2.20;;;;;;;-2.65;69.66;95045.31;2615748;47;20180;-73
2022/03/01 06:20:25;;;;;;;2.33;2.23;;;;;;;-2.61;69.88;95033.84;2615224;54;20188;-73
2022/03/01 06:22:53;;;;;;;5.67;5.17;;;;;;;-2.31;70.17;95047.53;2615512;47;20173;-74
2022/03/01 06:25:24;;;;;;;4.40;3.70;;;;;;;-2.11;70.04;94992.28;2615731;54;20176;-73
2022/03/01 06:27:55;;;;;;;1.90;1.80;;;;;;;-1.88;68.54;95037.28;2616008;54;20187;-72
2022/03/01 06:30:25;;;;;;;1.03;1.03;;;;;;;-1.58;69.45;95039.81;2616029;47;20166;-77
2022/03/01 06:32:53;;;;;;;2.20;1.43;;;;;;;-1.99;67.96;94973.88;2615664;47;20164;-72
2022/03/01 06:35:22;;;;;;;1.03;1.03;;;;;;;-1.89;68.41;94969.16;2615856;54;20144;-72
2022/03/01 06:37:51;;;;;;;1.00;1.00;;;;;;;-1.33;68.23;95033.47;2611558;54;20206;-73
2022/03/01 06:40:20;;;;;;;0.83;0.80;;;;;;;-1.39;69.04;95035.78;2616105;39;20591;-74
2022/03/01 06:42:51;;;;;;;1.43;1.23;;;;;;;-1.53;69.80;95013.13;2615232;54;20161;-73
2022/03/01 06:45:21;;;;;;;1.97;1.87;;;;;;;-1.21;68.22;95051.16;2614814;47;20296;-73
2022/03/01 06:47:52;;;;;;;1.02;1.02;;;;;;;-1.05;69.38;95030.25;2614570;54;20400;-74
2022/03/01 06:50:21;;;;;;;1.27;0.90;;;;;;;-0.56;71.42;95040.44;2615321;54;20181;-73
2022/03/01 06:52:50;;;;;;;0.80;0.80;;;;;;;-0.46;68.00;95030.13;2614384;39;20677;-74
2022/03/01 06:55:19;;;;;;;1.10;1.10;;;;;;;-1.09;67.61;95016.75;2614836;39;20679;-74
2022/03/01 06:57:50;;;;;;;1.17;1.13;;;;;;;-0.69;68.49;95034.50;2614074;47;20175;-74
2022/03/01 07:00:19;;;;;;;5.40;3.97;;;;;;;-1.22;67.84;95027.44;2614474;47;20176;-74
2022/03/01 07:02:48;;;;;;;1.17;1.17;;;;;;;-1.72;68.36;94962.91;2614196;54;20282;-76
2022/03/01 07:05:19;;;;;;;0.73;0.73;;;;;;;-0.80;71.32;95022.53;2611746;54;20165;-79
2022/03/01 07:07:48;;;;;;;2.33;1.33;;;;;;;-1.76;67.67;94965.34;2613288;47;20174;-81
2022/03/01 07:10:17;;;;;;;1.60;1.50;;;;;;;-1.51;68.73;95025.16;2615253;54;20165;-77
2022/03/01 07:12:47;;;;;;;1.37;1.27;;;;;;;-1.39;67.94;95033.00;2615054;47;20277;-77
2022/03/01 07:15:19;;;;;;;0.60;0.60;;;;;;;-0.80;69.50;95039.22;2615019;54;20154;-77
2022/03/01 07:17:50;;;;;;;1.43;1.43;;;;;;;-0.11;66.06;95032.81;2612858;54;20305;-76
2022/03/01 07:20:19;;;;;;;0.70;0.70;;;;;;;-0.27;66.87;95034.34;2615657;54;20279;-77
2022/03/01 07:22:47;;;;;;;2.00;1.90;;;;;;;-0.45;65.95;95042.72;2615612;47;20173;-75
2022/03/01 07:25:16;;;;;;;1.13;1.13;;;;;;;-0.42;67.60;95026.94;2615128;54;20166;-76
2022/03/01 07:27:49;;;;;;;0.80;0.80;;;;;;;-0.44;65.52;94988.53;2613400;54;20155;-76
2022/03/01 07:30:22;;;;;;;1.07;1.07;;;;;;;-0.28;65.16;95028.03;2612397;47;20628;-72
2022/03/01 07:32:52;;;;;;;2.10;2.00;;;;;;;-0.36;65.50;95036.47;2615624;54;20220;-73
2022/03/01 07:35:21;;;;;;;0.97;0.93;;;;;;;-0.59;67.16;95008.22;2614922;47;20151;-73
2022/03/01 07:37:50;;;;;;;1.57;1.47;;;;;;;-0.11;66.60;95033.53;2614373;47;20169;-73
2022/03/01 07:40:21;;;;;;;1.80;1.70;;;;;;;-0.07;64.38;95036.63;2615288;47;20760;-76
2022/03/01 07:42:50;;;;;;;1.47;1.47;;;;;;;-0.07;65.86;95041.47;2614353;54;20180;-74
2022/03/01 07:45:21;;;;;;;1.87;1.77;;;;;;;0.09;64.55;95039.94;2615170;47;20172;-70
2022/03/01 07:47:50;;;;;;;1.13;1.13;;;;;;;0.05;63.63;94997.84;2615289;54;20179;-73
2022/03/01 07:50:19;;;;;;;0.77;0.77;;;;;;;0.00;63.50;94977.31;2615756;39;20523;-72
2022/03/01 07:52:47;;;;;;;1.13;1.13;;;;;;;-0.19;63.99;94938.28;2615683;54;20167;-73
2022/03/01 07:55:16;;;;;;;0.90;0.90;;;;;;;0.56;63.77;95029.53;2615381;54;20187;-73
2022/03/01 07:57:45;;;;;;;1.37;1.37;;;;;;;0.24;62.88;95030.63;2614498;39;20532;-73
2022/03/01 08:00:15;;;;;;;1.57;1.47;;;;;;;0.25;63.78;95032.09;2615272;54;20179;-72
2022/03/01 08:02:47;;;;;;;1.90;0.80;;;;;;;0.53;65.85;95031.47;2616383;54;20509;-74
2022/03/01 08:05:15;;;;;;;0.60;0.60;;;;;;;0.74;65.27;95032.97;2616103;54;20238;-73
2022/03/01 08:07:44;;;;;;;0.97;0.97;;;;;;;1.19;64.71;95043.31;2616037;54;20171;-76
2022/03/01 08:10:12;;;;;;;1.17;1.17;;;;;;;1.55;63.36;95000.53;2615450;54;20175;-75
2022/03/01 08:12:42;;;;;;;1.37;1.37;;;;;;;0.10;64.11;94951.56;2615964;54;20239;-76
2022/03/01 08:15:11;;;;;;;1.27;1.27;;;;;;;0.09;63.75;95045.50;2615936;46;20282;-74
2022/03/01 08:17:52;;;;;;;1.50;1.40;;;;;;;0.41;64.82;95050.03;2615628;47;20160;-70
2022/03/01 08:20:22;;;;;;;2.83;2.63;;;;;;;-0.19;63.75;95005.06;2614916;46;20389;-76
2022/03/01 08:22:50;;;;;;;3.67;1.90;;;;;;;0.24;64.85;95039.72;2615489;47;20194;-79
2022/03/01 08:25:20;;;;;;;1.80;1.70;;;;;;;-0.26;61.93;94939.09;2614777;54;20155;-75
2022/03/01 08:27:49;;;;;;;1.77;1.67;;;;;;;0.39;64.75;95022.03;2615928;47;20670;-73
2022/03/01 08:30:19;;;;;;;1.40;1.40;;;;;;;-0.02;63.36;94960.47;2616092;54;20190;-77
2022/03/01 08:32:49;;;;;;;1.63;1.53;;;;;;;0.39;62.54;95008.09;2615894;47;20163;-76
2022/03/01 08:35:20;;;;;;;2.50;2.27;;;;;;;0.06;62.75;94993.75;2615553;47;20190;-76
2022/03/01 08:37:50;;;;;;;0.73;0.73;;;;;;;0.19;64.02;94967.56;2615167;54;20298;-74
2022/03/01 08:40:21;;;;;;;1.87;1.50;;;;;;;1.47;64.33;95055.06;2615740;39;20554;-74
2022/03/01 08:42:50;;;;;;;1.60;1.53;;;;;;;1.23;60.62;95056.84;2616037;47;20177;-72
2022/03/01 08:45:19;;;;;;;1.70;1.60;;;;;;;0.44;60.64;94997.97;2616280;54;20148;-73
2022/03/01 08:47:48;;;;;;;1.17;1.17;;;;;;;1.45;62.18;95052.13;2616234;54;20164;-72
2022/03/01 08:50:17;;;;;;;1.33;1.33;;;;;;;1.31;62.08;95029.50;2615784;54;20177;-73
2022/03/01 08:52:48;;;;;;;2.40;0.87;;;;;;;0.97;60.61;95047.97;2616195;47;20187;-74
2022/03/01 08:55:17;;;;;;;1.00;1.00;;;;;;;1.87;61.23;95057.97;2616033;54;20206;-75
2022/03/01 08:57:46;;;;;;;1.03;1.03;;;;;;;1.41;60.22;95025.38;2615578;54;20166;-76
2022/03/01 09:00:18;;;;;;;0.60;0.60;;;;;;;1.44;61.37;95034.66;2615127;47;20187;-75
2022/03/01 09:02:47;;;;;;;0.57;0.57;;;;;;;1.49;62.77;95052.44;2613431;54;20184;-73
2022/03/01 09:05:15;;;;;;;0.70;0.70;;;;;;;2.18;62.35;95018.19;2615521;54;20153;-74
2022/03/01 09:07:44;;;;;;;2.38;2.17;;;;;;;2.33;60.68;95040.19;2615659;54;20400;-74
2022/03/01 09:10:21;;;;;;;1.67;1.60;;;;;;;1.74;58.29;95014.50;2615600;54;20176;-75
2022/03/01 09:12:50;;;;;;;1.20;1.10;;;;;;;1.99;58.05;95030.88;2614012;47;20338;-75
2022/03/01 09:15:20;;;;;;;1.47;1.37;;;;;;;2.22;55.00;95060.38;2614155;54;20172;-76
2022/03/01 09:17:49;;;;;;;1.37;1.27;;;;;;;2.03;60.14;95061.91;2615652;54;20188;-75
2022/03/01 09:20:28;;;;;;;1.63;1.47;;;;;;;1.32;58.95;95028.94;2616910;39;20685;-75
2022/03/01 09:22:57;;;;;;;1.53;0.97;;;;;;;1.54;59.34;95070.91;2616185;54;20683;-75
2022/03/01 09:25:29;;;;;;;1.83;1.73;;;;;;;0.94;59.24;95045.66;2615537;47;20165;-74
2022/03/01 09:27:58;;;;;;;1.33;1.33;;;;;;;0.58;59.48;94973.97;2616272;54;20175;-74
2022/03/01 09:30:26;;;;;;;1.60;1.50;;;;;;;1.70;57.81;95066.50;2615583;54;20715;-75
2022/03/01 09:32:57;;;;;;;1.70;1.60;;;;;;;-0.08;56.71;94898.75;2614753;47;20200;-76
2022/03/01 09:35:32;;;;;;;0.67;0.67;;;;;;;1.90;61.43;95062.38;2613260;47;20271;-77
2022/03/01 09:38:12;;;;;;;1.90;1.30;;;;;;;0.44;61.26;94892.81;2615660;47;20194;-78
2022/03/01 09:40:43;;;;;;;2.33;1.93;;;;;;;1.81;59.14;95065.16;2612407;47;20171;-79
2022/03/01 09:43:22;;;;;;;;;;;;;;;;;;;;;
2022/03/01 09:45:51;;;;;;;1.40;1.40;;;;;;;1.27;58.07;95060.63;2616113;54;20180;-76
2022/03/01 09:48:29;;;;;;;1.17;1.17;;;;;;;1.21;59.33;95076.22;2616106;54;20176;-78
2022/03/01 09:51:00;;;;;;;1.63;1.53;;;;;;;0.29;57.93;94985.03;2616341;47;20179;-80
2022/03/01 09:53:29;;;;;;;1.30;1.30;;;;;;;1.79;61.11;95068.53;2615760;47;20172;-79
2022/03/01 09:56:02;;;;;;;0.53;0.53;;;;;;;2.85;61.76;95043.03;2616384;54;20156;-79
2022/03/01 09:58:31;;;;;;;0.73;0.73;;;;;;;1.90;57.78;95047.69;2616379;39;20254;-75
2022/03/01 10:01:00;;;;;;;0.57;0.57;;;;;;;1.28;58.00;95022.31;2616171;54;20167;-76
2022/03/01 10:03:36;;;;;;;0.80;0.80;;;;;;;0.86;59.13;94990.00;2615871;54;20259;-75
2022/03/01 10:06:12;;;;;;;0.80;0.80;;;;;;;1.47;61.20;95029.94;2616021;47;20180;-75
2022/03/01 10:08:41;;;;;;;0.50;0.50;;;;;;;1.70;61.07;95050.50;2615866;54;20290;-77
2022/03/01 10:11:16;;;;;;;1.27;1.27;;;;;;;-0.17;57.33;94851.41;2615787;47;20182;-79
2022/03/01 10:13:45;;;;;;;0.60;0.60;;;;;;;1.18;68.38;94993.69;2615931;54;20708;-76
2022/03/01 10:16:16;;;;;;;1.03;1.03;;;;;;;1.91;58.01;95043.56;2615952;54;20172;-77
2022/03/01 10:18:46;;;;;;;1.47;1.37;;;;;;;1.50;55.09;95031.56;2615867;54;20210;-76
2022/03/01 10:21:16;;;;;;;0.63;0.63;;;;;;;1.75;61.05;95026.38;2616028;54;20192;-79
2022/03/01 10:23:50;;;;;;;0.87;0.87;;;;;;;0.55;56.01;95019.72;2615595;54;20176;-79
2022/03/01 10:26:23;;;;;;;1.43;0.70;;;;;;;0.87;58.25;95046.50;2615710;47;20163;-78
2022/03/01 10:28:54;;;;;;;1.13;0.80;;;;;;;0.46;57.98;94978.63;2615326;54;20276;-77
2022/03/01 10:31:25;;;;;;;1.33;1.23;;;;;;;1.07;59.38;95034.06;2615782;54;20296;-74
2022/03/01 10:34:00;;;;;;;0.40;0.40;;;;;;;1.03;58.37;95017.03;2615098;54;20164;-77
2022/03/01 10:36:31;;;;;;;0.50;0.50;;;;;;;0.78;57.85;94953.16;2615959;54;20168;-77
2022/03/01 10:39:02;;;;;;;0.93;0.93;;;;;;;1.09;56.77;95011.91;2614295;47;20178;-76
2022/03/01 10:41:35;;;;;;;1.10;1.00;;;;;;;0.59;57.93;94987.31;2615582;54;20152;-76
2022/03/01 10:44:05;;;;;;;1.67;1.57;;;;;;;0.84;57.64;95026.09;2615564;54;20161;-78
2022/03/01 10:46:40;;;;;;;1.00;1.00;;;;;;;1.30;65.24;95022.47;2613794;54;20283;-78
2022/03/01 10:49:11;;;;;;;2.33;1.27;;;;;;;1.14;58.01;95007.31;2615699;47;20164;-76
2022/03/01 10:51:50;;;;;;;0.93;0.93;;;;;;;1.11;57.23;95019.66;2615909;54;20187;-76
2022/03/01 10:54:33;;;;;;;0.40;0.40;;;;;;;1.49;65.31;94986.19;2615608;54;20171;-77
2022/03/01 10:57:06;;;;;;;0.40;0.40;;;;;;;2.31;59.74;95014.91;2615484;54;20163;-76
2022/03/01 10:59:37;;;;;;;1.43;1.30;;;;;;;2.55;57.57;95013.03;2615609;54;20164;-77
2022/03/01 11:02:09;;;;;;;1.93;1.80;;;;;;;2.34;56.46;95006.03;2615874;47;20172;-75
2022/03/01 11:04:38;;;;;;;0.77;0.77;;;;;;;2.12;56.16;95005.25;2615157;54;20169;-76
2022/03/01 11:07:08;;;;;;;1.43;1.33;;;;;;;1.73;61.49;95009.50;2615053;47;20800;-74
2022/03/01 11:09:37;;;;;;;0.70;0.70;;;;;;;1.83;57.83;95004.59;2615440;47;20232;-73
2022/03/01 11:12:11;;;;;;;0.77;0.77;;;;;;;2.31;56.31;95009.31;2615235;54;20169;-76
2022/03/01 11:14:52;;;;;;;0.73;0.73;;;;;;;2.48;54.86;94995.09;2614775;54;20729;-74
2022/03/01 11:17:27;;;;;;;0.87;0.87;;;;;;;2.87;60.43;94978.81;2615028;54;20168;-71
2022/03/01 11:20:02;;;;;;;2.13;1.60;;;;;;;2.41;53.00;94979.25;2614672;47;20304;-73
2022/03/01 11:22:57;;;;;;;1.20;1.17;;;;;;;1.47;54.49;94957.38;2615041;54;20175;-74
2022/03/01 11:25:28;;;;;;;1.87;1.77;;;;;;;1.37;56.27;94988.81;2615047;54;20156;-73
2022/03/01 11:28:09;;;;;;;1.13;1.07;;;;;;;1.18;56.54;94955.34;2614785;54;20284;-72
2022/03/01 11:30:40;;;;;;;1.23;1.23;;;;;;;1.46;57.86;94981.03;2614997;47;20187;-76
2022/03/01 11:33:10;;;;;;;1.20;1.13;;;;;;;1.84;56.67;94963.44;2615115;54;20160;-75
2022/03/01 11:35:44;;;;;;;0.73;0.73;;;;;;;1.72;57.28;94954.97;2615455;47;20169;-76
2022/03/01 11:38:17;;;;;;;0.90;0.90;;;;;;;0.98;54.69;94923.22;2615345;47;20161;-73
2022/03/01 11:40:47;;;;;;;0.93;0.93;;;;;;;1.02;57.13;94937.47;2615872;47;20180;-74
2022/03/01 11:43:21;;;;;;;1.67;1.57;;;;;;;0.92;56.20;94967.41;2615249;47;20152;-79
2022/03/01 11:45:52;;;;;;;0.50;0.50;;;;;;;0.89;61.23;94929.53;2615927;54;20204;-77
2022/03/01 11:48:23;;;;;;;1.37;1.37;;;;;;;1.16;57.51;94971.22;2613219;47;20172;-76
2022/03/01 11:50:53;;;;;;;1.00;1.00;;;;;;;1.09;58.95;94969.31;2613888;54;20135;-77
2022/03/01 11:53:22;;;;;;;1.07;1.07;;;;;;;0.47;57.53;94888.16;2615087;54;20177;-73